createdAt,value
2024-01-06T00:01:05.915Z,63.53
2024-01-06T00:03:09.727Z,71.18
2024-01-06T00:05:13.071Z,70.65
2024-01-06T00:07:16.302Z,66.72
2024-01-06T00:09:19.509Z,66.60
2024-01-06T00:11:22.596Z,66.28
2024-01-06T00:13:25.747Z,60.97
2024-01-06T00:15:28.754Z,60.72
2024-01-06T00:17:33.259Z,66.47
2024-01-06T00:19:36.370Z,58.10
2024-01-06T00:21:39.472Z,63.00
2024-01-06T00:23:42.830Z,60.97
2024-01-06T00:25:45.945Z,63.83
2024-01-06T00:27:49.073Z,64.00
2024-01-06T00:29:52.308Z,59.60
2024-01-06T00:31:55.184Z,68.25
2024-01-06T00:33:59.864Z,66.15
2024-01-06T00:36:02.944Z,62.23
2024-01-06T00:38:06.084Z,58.88
2024-01-06T00:40:10.192Z,67.20
2024-01-06T00:42:13.391Z,63.28
2024-01-06T00:44:16.352Z,63.70
2024-01-06T00:46:19.538Z,63.05
2024-01-06T00:48:22.738Z,59.85
2024-01-06T00:50:27.448Z,61.95
2024-01-06T00:52:30.425Z,63.33
2024-01-06T00:54:33.485Z,58.42
2024-01-06T00:56:36.482Z,64.80
2024-01-06T00:58:39.489Z,63.83
2024-01-06T01:00:42.668Z,57.92
2024-01-06T01:02:45.973Z,56.83
2024-01-06T01:04:49.118Z,63.88
2024-01-06T01:06:53.793Z,62.80
2024-01-06T01:08:57.362Z,69.32
2024-01-06T01:11:00.929Z,70.15
2024-01-06T01:13:04.042Z,72.38
2024-01-06T01:15:08.087Z,67.55
2024-01-06T01:17:11.167Z,71.65
2024-01-06T01:19:14.405Z,72.15
2024-01-06T01:21:17.799Z,69.57
2024-01-06T01:23:22.472Z,67.38
2024-01-06T01:25:25.436Z,75.53
2024-01-06T01:27:28.451Z,67.25
2024-01-06T01:29:31.577Z,73.53
2024-01-06T01:31:35.943Z,69.28
2024-01-06T01:33:39.128Z,77.72
2024-01-06T01:35:42.395Z,66.63
2024-01-06T01:37:45.417Z,71.75
2024-01-06T01:39:49.943Z,67.50
2024-01-06T01:41:52.947Z,68.60
2024-01-06T01:43:59.764Z,70.57
2024-01-06T01:46:03.095Z,71.47
2024-01-06T01:48:07.348Z,73.32
2024-01-06T01:50:11.593Z,70.88
2024-01-06T01:52:15.210Z,75.35
2024-01-06T01:54:18.341Z,72.63
2024-01-06T01:56:23.268Z,66.80
2024-01-06T01:58:26.552Z,65.80
2024-01-06T02:00:30.055Z,67.32
2024-01-06T02:02:33.870Z,73.40
2024-01-06T02:04:37.238Z,74.30
2024-01-06T02:06:40.156Z,74.93
2024-01-06T02:08:43.448Z,73.65
2024-01-06T02:10:46.557Z,68.55
2024-01-06T02:12:53.147Z,66.05
2024-01-06T02:14:56.380Z,67.68
2024-01-06T02:16:59.697Z,75.85
2024-01-06T02:19:02.800Z,69.65
2024-01-06T02:21:08.204Z,72.88
2024-01-06T02:23:12.724Z,68.47
2024-01-06T02:25:15.959Z,70.17
2024-01-06T02:27:19.154Z,68.40
2024-01-06T02:29:22.236Z,71.30
2024-01-06T02:31:25.243Z,66.97
2024-01-06T02:33:28.475Z,64.25
2024-01-06T02:35:31.686Z,61.95
2024-01-06T02:37:34.721Z,66.78
2024-01-06T02:39:39.363Z,67.03
2024-01-06T02:41:42.523Z,65.90
2024-01-06T02:43:45.548Z,58.33
2024-01-06T02:45:48.864Z,61.78
2024-01-06T02:47:52.302Z,58.22
2024-01-06T02:49:55.463Z,58.70
2024-01-06T02:51:58.609Z,53.58
2024-01-06T02:54:01.820Z,55.47
2024-01-06T02:56:11.625Z,52.65
2024-01-06T02:58:14.717Z,60.38
2024-01-06T03:00:18.383Z,58.47
2024-01-06T03:02:21.484Z,57.20
2024-01-06T03:04:24.522Z,59.97
2024-01-06T03:06:28.728Z,56.88
2024-01-06T03:08:32.554Z,60.58
2024-01-06T03:10:35.921Z,58.85
2024-01-06T03:12:40.847Z,58.83
2024-01-06T03:14:43.960Z,58.38
2024-01-06T03:16:46.873Z,58.05
2024-01-06T03:18:50.791Z,56.15
2024-01-06T03:20:53.827Z,57.38
2024-01-06T03:22:57.069Z,56.35
2024-01-06T03:25:00.210Z,56.58
2024-01-06T03:27:04.075Z,55.50
2024-01-06T03:29:08.663Z,53.78
2024-01-06T03:31:11.996Z,54.90
2024-01-06T03:33:15.154Z,56.80
2024-01-06T03:35:18.360Z,55.67
2024-01-06T03:37:21.387Z,57.40
2024-01-06T03:39:24.498Z,61.35
2024-01-06T03:41:27.679Z,60.05
2024-01-06T03:43:30.829Z,56.50
2024-01-06T03:45:35.340Z,53.92
2024-01-06T03:47:38.549Z,54.53
2024-01-06T03:49:41.897Z,55.85
2024-01-06T03:51:45.133Z,58.53
2024-01-06T03:53:48.158Z,57.88
2024-01-06T03:55:51.270Z,59.33
2024-01-06T03:57:54.355Z,55.88
2024-01-06T03:59:57.434Z,59.38
2024-01-06T04:02:02.006Z,58.15
2024-01-06T04:04:05.429Z,56.87
2024-01-06T04:06:08.764Z,57.60
2024-01-06T04:08:11.797Z,59.13
2024-01-06T04:10:14.847Z,51.63
2024-01-06T04:12:18.516Z,54.95
2024-01-06T04:14:21.454Z,59.58
2024-01-06T04:16:24.639Z,54.63
2024-01-06T04:18:29.282Z,58.50
2024-01-06T04:20:32.636Z,65.47
2024-01-06T04:22:35.851Z,50.28
2024-01-06T04:24:39.854Z,62.85
2024-01-06T04:26:46.362Z,57.80
2024-01-06T04:28:49.445Z,56.80
2024-01-06T04:30:54.222Z,53.97
2024-01-06T04:32:58.927Z,54.75
2024-01-06T04:35:04.423Z,59.30
2024-01-06T04:39:10.034Z,57.90
2024-01-06T04:41:13.152Z,56.63
2024-01-06T04:43:16.100Z,54.00
2024-01-06T04:45:20.987Z,53.97
2024-01-06T04:47:24.893Z,50.95
2024-01-06T04:49:27.998Z,52.83
2024-01-06T04:51:32.586Z,56.05
2024-01-06T04:53:35.623Z,53.20
2024-01-06T04:55:38.652Z,55.15
2024-01-06T04:57:41.964Z,54.90
2024-01-06T04:59:44.938Z,50.90
2024-01-06T05:01:47.954Z,53.78
2024-01-06T05:03:51.101Z,55.03
2024-01-06T05:05:54.141Z,54.30
2024-01-06T05:07:59.759Z,49.50
2024-01-06T05:10:03.700Z,51.05
2024-01-06T05:12:07.047Z,55.13
2024-01-06T05:14:10.173Z,57.05
2024-01-06T05:16:13.278Z,60.60
2024-01-06T05:18:16.491Z,57.60
2024-01-06T05:20:19.772Z,59.80
2024-01-06T05:22:22.900Z,76.85
2024-01-06T05:24:27.347Z,79.35
2024-01-06T05:26:30.905Z,71.45
2024-01-06T05:28:33.874Z,78.95
2024-01-06T05:30:37.297Z,76.97
2024-01-06T05:32:40.526Z,70.60
2024-01-06T05:34:43.769Z,69.28
2024-01-06T05:36:47.208Z,73.13
2024-01-06T05:38:53.256Z,67.13
2024-01-06T05:40:58.220Z,73.70
2024-01-06T05:43:01.329Z,66.28
2024-01-06T05:45:04.698Z,65.35
2024-01-06T05:47:08.126Z,66.88
2024-01-06T05:49:11.954Z,73.13
2024-01-06T05:51:14.996Z,68.38
2024-01-06T05:53:19.871Z,73.20
2024-01-06T05:55:23.686Z,72.43
2024-01-06T05:57:28.300Z,66.68
2024-01-06T05:59:34.525Z,58.20
2024-01-06T06:01:37.709Z,64.10
2024-01-06T06:03:41.351Z,59.90
2024-01-06T06:05:44.703Z,69.13
2024-01-06T06:07:48.075Z,65.28
2024-01-06T06:09:51.151Z,74.60
2024-01-06T06:11:54.249Z,68.35
2024-01-06T06:13:58.657Z,64.05
2024-01-06T06:16:01.813Z,63.80
2024-01-06T06:18:05.513Z,69.10
2024-01-06T06:20:09.242Z,66.22
2024-01-06T06:22:12.189Z,79.68
2024-01-06T06:24:15.311Z,68.65
2024-01-06T06:26:18.420Z,68.15
2024-01-06T06:28:21.691Z,69.55
2024-01-06T06:30:26.353Z,69.28
2024-01-06T06:32:29.697Z,70.05
2024-01-06T06:34:33.108Z,66.20
2024-01-06T06:36:36.475Z,68.70
2024-01-06T06:38:39.618Z,86.68
2024-01-06T06:40:43.142Z,89.40
2024-01-06T06:42:46.277Z,85.55
2024-01-06T06:44:49.508Z,73.07
2024-01-06T06:46:54.006Z,88.30
2024-01-06T06:48:57.237Z,97.35
2024-01-06T06:51:00.416Z,102.75
2024-01-06T06:53:03.761Z,102.47
2024-01-06T06:55:08.354Z,94.35
2024-01-06T06:57:11.507Z,95.43
2024-01-06T06:59:14.915Z,91.43
2024-01-06T07:01:18.621Z,93.32
2024-01-06T07:03:23.347Z,102.93
2024-01-06T07:05:26.481Z,90.97
2024-01-06T07:07:29.827Z,89.90
2024-01-06T07:09:32.851Z,85.28
2024-01-06T07:11:35.985Z,91.95
2024-01-06T07:13:39.202Z,93.00
2024-01-06T07:15:42.790Z,88.85
2024-01-06T07:17:46.475Z,97.68
2024-01-06T07:19:52.075Z,107.50
2024-01-06T07:21:55.157Z,104.97
2024-01-06T07:23:58.626Z,91.50
2024-01-06T07:26:01.919Z,82.53
2024-01-06T07:28:05.384Z,91.25
2024-01-06T07:30:12.183Z,82.50
2024-01-06T07:32:15.503Z,87.72
2024-01-06T07:34:18.670Z,88.45
2024-01-06T07:36:23.968Z,96.20
2024-01-06T07:38:27.116Z,105.93
2024-01-06T07:40:30.279Z,104.20
2024-01-06T07:42:33.426Z,110.53
2024-01-06T07:44:36.612Z,97.57
2024-01-06T07:46:41.584Z,97.53
2024-01-06T07:48:44.901Z,96.45
2024-01-06T07:50:48.221Z,105.25
2024-01-06T07:52:53.126Z,105.95
2024-01-06T07:54:56.892Z,96.00
2024-01-06T07:57:00.711Z,91.53
2024-01-06T07:59:03.913Z,98.65
2024-01-06T08:01:07.048Z,97.80
2024-01-06T08:03:10.317Z,101.28
2024-01-06T08:05:13.272Z,93.82
2024-01-06T08:07:16.433Z,95.55
2024-01-06T08:09:20.995Z,98.13
2024-01-06T08:11:24.094Z,92.65
2024-01-06T08:13:27.011Z,89.20
2024-01-06T08:15:30.110Z,91.10
2024-01-06T08:17:33.377Z,94.20
2024-01-06T08:19:37.436Z,88.70
2024-01-06T08:21:40.573Z,89.35
2024-01-06T08:23:43.708Z,84.18
2024-01-06T08:25:48.280Z,89.93
2024-01-06T08:27:51.386Z,84.63
2024-01-06T08:29:54.425Z,82.88
2024-01-06T08:31:58.034Z,76.60
2024-01-06T08:34:01.259Z,82.38
2024-01-06T08:36:05.020Z,84.88
2024-01-06T08:38:08.197Z,87.38
2024-01-06T08:40:12.240Z,91.30
2024-01-06T08:42:16.708Z,88.95
2024-01-06T08:44:19.780Z,91.03
2024-01-06T08:46:23.299Z,82.20
2024-01-06T08:48:26.521Z,89.50
2024-01-06T08:50:29.529Z,86.07
2024-01-06T08:52:32.879Z,88.03
2024-01-06T08:54:36.495Z,98.53
2024-01-06T08:56:39.818Z,104.00
2024-01-06T08:58:44.360Z,89.47
2024-01-06T09:00:47.503Z,98.27
2024-01-06T09:02:50.915Z,92.53
2024-01-06T09:04:54.094Z,91.10
2024-01-06T09:06:57.077Z,95.60
2024-01-06T09:09:00.166Z,97.88
2024-01-06T09:11:03.182Z,99.25
2024-01-06T09:13:06.358Z,102.55
2024-01-06T09:15:11.282Z,102.85
2024-01-06T09:17:15.053Z,108.15
2024-01-06T09:19:18.282Z,99.63
2024-01-06T09:21:21.629Z,102.82
2024-01-06T09:23:25.587Z,119.85
2024-01-06T09:25:28.731Z,105.82
2024-01-06T09:27:31.829Z,112.13
2024-01-06T09:29:35.376Z,110.35
2024-01-06T09:31:40.579Z,110.80
2024-01-06T09:35:46.681Z,102.50
2024-01-06T09:37:50.117Z,99.72
2024-01-06T09:39:53.108Z,108.30
2024-01-06T09:41:56.252Z,109.78
2024-01-06T09:43:59.306Z,109.32
2024-01-06T09:46:08.860Z,112.63
2024-01-06T09:48:15.130Z,102.18
2024-01-06T09:50:20.888Z,97.10
2024-01-06T09:52:24.614Z,102.15
2024-01-06T09:54:35.294Z,95.38
2024-01-06T09:56:38.707Z,89.45
2024-01-06T09:58:42.757Z,101.18
2024-01-06T10:00:45.934Z,102.90
2024-01-06T10:02:50.446Z,102.95
2024-01-06T10:04:55.181Z,104.85
2024-01-06T10:06:58.367Z,118.35
2024-01-06T10:09:01.656Z,107.13
2024-01-06T10:11:05.030Z,106.40
2024-01-06T10:13:08.391Z,116.20
2024-01-06T10:15:13.846Z,114.07
2024-01-06T10:17:17.505Z,119.75
2024-01-06T10:19:21.380Z,117.78
2024-01-06T10:21:27.211Z,127.45
2024-01-06T10:23:31.057Z,125.75
2024-01-06T10:25:34.367Z,115.45
2024-01-06T10:27:38.197Z,113.47
2024-01-06T10:29:41.721Z,113.78
2024-01-06T10:31:45.014Z,114.45
2024-01-06T10:33:48.372Z,117.82
2024-01-06T10:35:51.805Z,120.03
2024-01-06T10:37:56.346Z,108.97
2024-01-06T10:40:13.902Z,122.95
2024-01-06T10:42:17.689Z,114.90
2024-01-06T10:44:22.496Z,103.90
2024-01-06T10:46:26.834Z,111.03
2024-01-06T10:48:33.488Z,112.40
2024-01-06T10:50:36.723Z,109.15
2024-01-06T10:52:40.660Z,108.80
2024-01-06T10:54:46.588Z,111.82
2024-01-06T10:56:52.994Z,102.28
2024-01-06T10:58:58.056Z,96.65
2024-01-06T11:01:01.704Z,100.00
2024-01-06T11:03:06.862Z,108.32
2024-01-06T11:05:12.106Z,102.75
2024-01-06T11:07:17.135Z,105.55
2024-01-06T11:09:24.377Z,108.93
2024-01-06T11:11:29.753Z,107.00
2024-01-06T11:13:32.809Z,110.97
2024-01-06T11:15:43.296Z,103.10
2024-01-06T11:17:57.382Z,110.18
2024-01-06T11:20:07.891Z,97.63
2024-01-06T11:22:29.901Z,107.05
2024-01-06T11:24:38.968Z,108.85
2024-01-06T11:26:44.681Z,104.47
2024-01-06T11:31:08.381Z,105.15
2024-01-06T11:33:12.146Z,112.47
2024-01-06T11:35:16.430Z,106.53
2024-01-06T11:37:21.948Z,90.07
2024-01-06T11:41:51.393Z,105.72
2024-01-06T11:43:55.079Z,104.90
2024-01-06T11:46:02.292Z,108.93
2024-01-06T11:48:07.617Z,99.28
2024-01-06T11:50:11.601Z,88.95
2024-01-06T11:52:15.782Z,98.43
2024-01-06T11:54:20.054Z,106.78
2024-01-06T11:56:26.301Z,111.95
2024-01-06T11:58:30.823Z,107.45
2024-01-06T12:00:34.359Z,96.43
2024-01-06T12:02:37.384Z,89.80
2024-01-06T12:04:42.513Z,82.88
2024-01-06T12:06:45.712Z,96.35
2024-01-06T12:08:49.347Z,96.82
2024-01-06T12:10:52.387Z,88.82
2024-01-06T12:13:02.401Z,90.50
2024-01-06T12:15:10.336Z,93.20
2024-01-06T12:17:14.792Z,86.30
2024-01-06T12:19:17.916Z,89.68
2024-01-06T12:21:21.105Z,95.25
2024-01-06T12:23:29.249Z,87.38
2024-01-06T12:25:38.451Z,89.15
2024-01-06T12:27:44.337Z,85.80
2024-01-06T12:29:47.450Z,94.28
2024-01-06T12:31:52.434Z,81.38
2024-01-06T12:33:55.988Z,69.00
2024-01-06T12:36:03.429Z,73.25
2024-01-06T12:38:11.362Z,68.55
2024-01-06T12:40:18.450Z,69.05
2024-01-06T12:42:23.664Z,81.07
2024-01-06T12:44:26.804Z,76.22
2024-01-06T12:46:29.949Z,77.78
2024-01-06T12:48:34.666Z,74.30
2024-01-06T12:50:37.775Z,77.45
2024-01-06T12:52:41.143Z,72.47
2024-01-06T12:54:47.462Z,87.20
2024-01-06T12:56:51.228Z,72.45
2024-01-06T12:58:54.658Z,70.28
2024-01-06T13:00:58.489Z,74.70
2024-01-06T13:03:01.638Z,69.78
2024-01-06T13:05:06.708Z,68.70
2024-01-06T13:07:09.917Z,73.78
2024-01-06T13:09:17.965Z,66.60
2024-01-06T13:11:21.734Z,71.07
2024-01-06T13:13:24.804Z,75.32
2024-01-06T13:15:28.038Z,76.10
2024-01-06T13:17:31.230Z,75.20
2024-01-06T13:19:35.566Z,71.40
2024-01-06T13:21:40.921Z,69.03
2024-01-06T13:23:44.146Z,74.00
2024-01-06T13:25:47.342Z,76.65
2024-01-06T13:27:50.517Z,75.35
2024-01-06T13:29:53.584Z,69.55
2024-01-06T13:31:56.982Z,72.22
2024-01-06T13:34:00.122Z,84.65
2024-01-06T13:36:03.288Z,84.80
2024-01-06T13:38:07.789Z,77.45
2024-01-06T13:40:11.985Z,78.43
2024-01-06T13:42:16.408Z,78.15
2024-01-06T13:44:20.813Z,72.50
2024-01-06T13:46:23.858Z,74.75
2024-01-06T13:48:27.013Z,73.88
2024-01-06T13:50:30.218Z,73.70
2024-01-06T13:52:33.331Z,70.10
2024-01-06T13:54:37.849Z,70.28
2024-01-06T13:56:41.054Z,71.37
2024-01-06T13:58:44.088Z,68.70
2024-01-06T14:00:47.632Z,68.68
2024-01-06T14:02:50.799Z,69.30
2024-01-06T14:04:54.138Z,69.57
2024-01-06T14:07:00.217Z,79.63
2024-01-06T14:09:07.076Z,73.20
2024-01-06T14:11:11.558Z,85.65
2024-01-06T14:13:14.651Z,95.25
2024-01-06T14:15:17.934Z,95.85
2024-01-06T14:17:21.040Z,93.35
2024-01-06T14:19:25.296Z,94.88
2024-01-06T14:21:29.660Z,99.22
2024-01-06T14:23:34.084Z,91.47
2024-01-06T14:25:37.351Z,86.00
2024-01-06T14:27:41.970Z,80.65
2024-01-06T14:29:45.212Z,90.95
2024-01-06T14:31:48.401Z,87.30
2024-01-06T14:33:51.606Z,79.30
2024-01-06T14:35:54.984Z,70.82
2024-01-06T14:37:58.404Z,68.60
2024-01-06T14:40:06.577Z,69.60
2024-01-06T14:42:11.032Z,71.53
2024-01-06T14:44:15.636Z,64.05
2024-01-06T14:46:20.135Z,70.55
2024-01-06T14:48:23.624Z,64.95
2024-01-06T14:50:26.896Z,67.00
2024-01-06T14:52:29.885Z,68.78
2024-01-06T14:54:34.810Z,66.10
2024-01-06T14:56:42.721Z,61.65
2024-01-06T14:58:46.917Z,71.63
2024-01-06T15:00:51.731Z,71.35
2024-01-06T15:02:54.800Z,59.83
2024-01-06T15:04:58.041Z,64.75
2024-01-06T15:07:02.032Z,66.90
2024-01-06T15:09:05.119Z,66.75
2024-01-06T15:11:09.728Z,73.70
2024-01-06T15:13:12.791Z,66.20
2024-01-06T15:15:16.126Z,70.30
2024-01-06T15:17:20.719Z,71.28
2024-01-06T15:19:29.098Z,66.93
2024-01-06T15:21:35.287Z,68.28
2024-01-06T15:23:38.468Z,65.97
2024-01-06T15:25:43.626Z,66.55
2024-01-06T15:27:48.926Z,65.13
2024-01-06T15:29:52.040Z,68.82
2024-01-06T15:31:58.589Z,62.20
2024-01-06T15:34:03.466Z,76.95
2024-01-06T15:36:07.118Z,85.55
2024-01-06T15:38:10.069Z,87.45
2024-01-06T15:40:13.303Z,89.88
2024-01-06T15:42:16.512Z,87.75
2024-01-06T15:44:19.844Z,87.25
2024-01-06T15:46:23.199Z,78.95
2024-01-06T15:48:26.658Z,76.82
2024-01-06T15:50:31.812Z,71.88
2024-01-06T15:52:35.290Z,82.25
2024-01-06T15:54:38.310Z,76.07
2024-01-06T15:56:41.506Z,65.25
2024-01-06T15:58:44.564Z,72.75
2024-01-06T16:00:47.950Z,74.13
2024-01-06T16:02:52.040Z,73.90
2024-01-06T16:04:56.130Z,74.57
2024-01-06T16:07:00.725Z,76.97
2024-01-06T16:09:07.218Z,77.20
2024-01-06T16:11:12.572Z,75.38
2024-01-06T16:13:16.045Z,78.72
2024-01-06T16:15:21.724Z,77.10
2024-01-06T16:17:24.915Z,83.20
2024-01-06T16:19:28.645Z,71.97
2024-01-06T16:21:32.742Z,82.65
2024-01-06T16:23:37.366Z,81.88
2024-01-06T16:25:40.570Z,81.93
2024-01-06T16:27:44.007Z,81.18
2024-01-06T16:29:47.681Z,77.15
2024-01-06T16:31:51.069Z,77.40
2024-01-06T16:33:54.315Z,70.55
2024-01-06T16:35:58.902Z,76.95
2024-01-06T16:38:02.997Z,77.60
2024-01-06T16:40:12.105Z,74.88
2024-01-06T16:42:15.378Z,71.78
2024-01-06T16:44:19.553Z,66.53
2024-01-06T16:46:22.554Z,78.50
2024-01-06T16:48:25.646Z,70.10
2024-01-06T16:50:29.006Z,70.03
2024-01-06T16:52:31.931Z,69.63
2024-01-06T16:54:35.022Z,72.80
2024-01-06T16:56:39.657Z,74.22
2024-01-06T16:58:44.487Z,58.10
2024-01-06T17:00:47.661Z,79.85
2024-01-06T17:02:50.763Z,73.75
2024-01-06T17:04:54.009Z,70.18
2024-01-06T17:06:58.706Z,72.68
2024-01-06T17:09:01.843Z,71.45
2024-01-06T17:11:05.562Z,70.53
2024-01-06T17:13:09.998Z,69.15
2024-01-06T17:15:15.069Z,65.97
2024-01-06T17:17:18.282Z,65.03
2024-01-06T17:19:21.434Z,56.20
2024-01-06T17:21:24.452Z,57.33
2024-01-06T17:23:27.481Z,60.05
2024-01-06T17:25:30.449Z,63.28
2024-01-06T17:27:33.500Z,62.95
2024-01-06T17:29:38.250Z,59.25
2024-01-06T17:31:41.595Z,56.83
2024-01-06T17:33:44.709Z,57.80
2024-01-06T17:35:48.750Z,61.28
2024-01-06T17:37:51.771Z,61.88
2024-01-06T17:39:54.897Z,61.67
2024-01-06T17:42:00.391Z,62.03
2024-01-06T17:44:04.486Z,65.85
2024-01-06T17:46:09.495Z,60.65
2024-01-06T17:48:12.732Z,59.10
2024-01-06T17:50:15.764Z,62.45
2024-01-06T17:52:19.358Z,57.20
2024-01-06T17:54:22.414Z,58.08
2024-01-06T17:56:25.856Z,60.25
2024-01-06T17:58:28.845Z,65.28
2024-01-06T18:00:32.948Z,58.63
2024-01-06T18:02:39.000Z,57.60
2024-01-06T18:04:43.236Z,56.00
2024-01-06T18:06:46.529Z,59.70
2024-01-06T18:08:49.881Z,57.38
2024-01-06T18:10:52.868Z,50.85
2024-01-06T18:12:55.947Z,58.38
2024-01-06T18:14:59.656Z,50.70
2024-01-06T18:17:02.707Z,52.13
2024-01-06T18:19:07.733Z,47.05
2024-01-06T18:21:11.467Z,46.78
2024-01-06T18:23:14.750Z,49.20
2024-01-06T18:25:17.934Z,46.13
2024-01-06T18:27:21.007Z,52.08
2024-01-06T18:29:24.360Z,54.78
2024-01-06T18:31:27.660Z,51.63
2024-01-06T18:33:31.170Z,53.38
2024-01-06T18:35:35.869Z,53.28
2024-01-06T18:37:38.874Z,47.93
2024-01-06T18:39:42.032Z,33.72
2024-01-06T18:41:45.208Z,40.28
2024-01-06T18:43:48.213Z,36.60
2024-01-06T18:45:51.350Z,40.85
2024-01-06T18:47:54.416Z,40.00
2024-01-06T18:49:57.899Z,35.33
2024-01-06T18:52:02.982Z,33.38
2024-01-06T18:54:06.631Z,31.80
2024-01-06T18:56:12.390Z,34.50
2024-01-06T18:58:15.500Z,29.45
2024-01-06T19:00:20.895Z,25.25
2024-01-06T19:02:24.295Z,27.60
2024-01-06T19:04:27.294Z,28.10
2024-01-06T19:06:31.900Z,23.50
2024-01-06T19:08:36.332Z,25.70
2024-01-06T19:10:39.395Z,28.80
2024-01-06T19:12:42.875Z,28.27
2024-01-06T19:14:47.252Z,30.48
2024-01-06T19:16:50.364Z,33.22
2024-01-06T19:18:53.480Z,32.60
2024-01-06T19:20:56.468Z,28.25
2024-01-06T19:23:06.709Z,31.45
2024-01-06T19:25:14.294Z,25.73
2024-01-06T19:27:17.871Z,30.35
2024-01-06T19:29:20.882Z,29.63
2024-01-06T19:31:24.115Z,31.40
2024-01-06T19:33:27.598Z,29.42
2024-01-06T19:35:33.064Z,26.98
2024-01-06T19:37:36.322Z,33.92
2024-01-06T19:39:39.679Z,27.80
2024-01-06T19:41:44.225Z,29.70
2024-01-06T19:43:47.303Z,30.02
2024-01-06T19:45:55.498Z,26.15
2024-01-06T19:47:58.942Z,22.90
2024-01-06T19:50:03.205Z,24.63
2024-01-06T19:52:07.265Z,23.50
2024-01-06T19:54:11.983Z,22.80
2024-01-06T19:56:16.572Z,22.42
2024-01-06T19:58:21.102Z,19.95
2024-01-06T20:00:26.158Z,23.33
2024-01-06T20:02:29.066Z,24.35
2024-01-06T20:04:32.162Z,26.58
2024-01-06T20:06:35.990Z,31.30
2024-01-06T20:08:39.050Z,34.85
2024-01-06T20:10:42.293Z,28.00
2024-01-06T20:12:45.500Z,25.00
2024-01-06T20:14:50.027Z,24.63
2024-01-06T20:16:54.482Z,29.05
2024-01-06T20:18:58.117Z,24.23
2024-01-06T20:21:03.751Z,22.25
2024-01-06T20:25:10.470Z,21.17
2024-01-06T20:29:17.617Z,21.45
2024-01-06T20:31:22.261Z,20.52
2024-01-06T20:33:27.304Z,20.50
2024-01-06T20:35:30.707Z,25.70
2024-01-06T20:37:33.847Z,20.13
2024-01-06T20:39:42.826Z,16.65
2024-01-06T20:41:46.692Z,19.08
2024-01-06T20:43:50.105Z,22.65
2024-01-06T20:45:54.897Z,19.27
2024-01-06T20:47:59.390Z,21.75
2024-01-06T20:50:02.549Z,21.35
2024-01-06T20:52:06.505Z,20.80
2024-01-06T20:54:10.077Z,28.13
2024-01-06T20:56:14.780Z,23.55
2024-01-06T20:58:17.882Z,20.30
2024-01-06T21:00:21.546Z,22.83
2024-01-06T21:02:24.794Z,21.20
2024-01-06T21:04:29.286Z,19.27
2024-01-06T21:06:32.361Z,23.63
2024-01-06T21:08:35.382Z,21.15
2024-01-06T21:10:38.695Z,21.92
2024-01-06T21:12:41.832Z,24.10
2024-01-06T21:14:45.102Z,23.30
2024-01-06T21:16:48.156Z,19.98
2024-01-06T21:18:51.423Z,20.05
2024-01-06T21:20:56.257Z,24.45
2024-01-06T21:22:59.517Z,23.00
2024-01-06T21:25:04.612Z,24.73
2024-01-06T21:27:07.874Z,23.27
2024-01-06T21:29:11.817Z,22.40
2024-01-06T21:31:16.503Z,23.65
2024-01-06T21:33:19.798Z,21.95
2024-01-06T21:35:22.935Z,23.63
2024-01-06T21:37:29.389Z,24.85
2024-01-06T21:39:32.600Z,23.10
2024-01-06T21:41:35.552Z,25.25
2024-01-06T21:43:38.711Z,24.73
2024-01-06T21:45:42.066Z,22.67
2024-01-06T21:47:45.210Z,26.92
2024-01-06T21:49:48.315Z,23.48
2024-01-06T21:51:52.728Z,24.20
2024-01-06T21:53:58.003Z,21.63
2024-01-06T21:56:01.214Z,23.80
2024-01-06T21:58:04.712Z,23.58
2024-01-06T22:00:13.755Z,21.50
2024-01-06T22:02:16.721Z,22.95
2024-01-06T22:04:19.816Z,24.23
2024-01-06T22:06:22.902Z,22.33
2024-01-06T22:08:26.017Z,26.88
2024-01-06T22:10:34.140Z,19.92
2024-01-06T22:12:37.482Z,24.95
2024-01-06T22:14:40.596Z,26.10
2024-01-06T22:16:43.903Z,21.98
2024-01-06T22:18:46.958Z,25.63
2024-01-06T22:20:50.206Z,24.40
2024-01-06T22:22:53.439Z,24.85
2024-01-06T22:24:56.635Z,23.25
2024-01-06T22:27:01.076Z,28.35
2024-01-06T22:29:04.832Z,29.77
2024-01-06T22:31:08.378Z,26.20
2024-01-06T22:33:11.715Z,25.55
2024-01-06T22:35:15.773Z,27.73
2024-01-06T22:37:18.934Z,27.15
2024-01-06T22:39:26.641Z,25.05
2024-01-06T22:41:29.794Z,22.40
2024-01-06T22:43:34.305Z,19.35
2024-01-06T22:45:39.577Z,17.93
2024-01-06T22:47:43.132Z,19.25
2024-01-06T22:49:46.209Z,22.70
2024-01-06T22:51:49.144Z,21.88
2024-01-06T22:53:52.565Z,24.73
2024-01-06T22:55:55.494Z,25.63
2024-01-06T22:57:58.661Z,20.27
2024-01-06T23:00:11.966Z,23.88
2024-01-06T23:02:15.688Z,20.48
2024-01-06T23:04:18.835Z,19.63
2024-01-06T23:06:22.136Z,23.33
2024-01-06T23:08:25.071Z,22.08
2024-01-06T23:10:28.064Z,31.15
2024-01-06T23:12:31.116Z,20.17
2024-01-06T23:14:34.239Z,19.92
2024-01-06T23:16:38.878Z,23.33
2024-01-06T23:18:42.324Z,23.20
2024-01-06T23:20:45.517Z,21.17
2024-01-06T23:22:48.742Z,18.27
2024-01-06T23:24:51.778Z,20.90
2024-01-06T23:26:54.874Z,21.20
2024-01-06T23:28:58.001Z,22.02
2024-01-06T23:31:01.176Z,18.75
2024-01-06T23:33:06.273Z,18.15
2024-01-06T23:35:10.099Z,18.05
2024-01-06T23:37:13.205Z,22.63
2024-01-06T23:39:16.215Z,17.92
2024-01-06T23:41:19.480Z,18.48
2024-01-06T23:43:22.609Z,30.05
2024-01-06T23:45:26.809Z,27.13
2024-01-06T23:47:29.889Z,23.05
2024-01-06T23:49:34.589Z,23.30
2024-01-06T23:51:37.719Z,26.05
2024-01-06T23:53:41.095Z,22.88
2024-01-06T23:55:44.239Z,24.10
2024-01-06T23:57:48.360Z,27.23
2024-01-06T23:59:51.331Z,18.40
